Corpus Christi, TX

7:08 PM CST on December 26, 2014 (GMT -0600)
King Estates | Change Station
CLOSE
Current Station
Personal Weather Station
Location: Corpus Christi, TX
Elevation: 17 ft
Nearby Weather Stations

Elev 17 ft 27.65 °N, 97.41 °W | Updated 1 second ago

Partly Cloudy
Partly Cloudy
67.7 °F
Feels Like 67.7 °F
N
14.0
Wind Variable Wind from South
Gusts 14.0 mph

Today
High -- | Low -- °F
--% Chance of Precip.
Yesterday
High -- | Low -- °F
Precip. -- in
7:18 AM 5:42 PM
Waxing Crescent, 31% visible
Pressure 29.89 in
Visibility 10.0 miles
Clouds Few 25000 ft
Dew Point 63 °F
Humidity 86%
Rainfall 0.02 in
Snow Depth Not available.
UV 0 out of 12
Pollen 7.90 out of 12
Air Quality Not available.
Flu Activity Not available.
METAR KCRP 270051Z 16013KT 10SM FEW250 20/18 A2989 RMK AO2 SLP122 T02000178

More Conditions Fewer Conditions

Pressure 29.89 in
Visibility 10.0 miles
Clouds Few 25000 ft
Dew Point 63 °F
Humidity 86%
Rainfall 0.02 in
Snow Depth Not available.
UV 0 out of 12
Pollen 7.90 out of 12
Air Quality Not available.
Flu Activity Not available.
METAR KCRP 270051Z 16013KT 10SM FEW250 20/18 A2989 RMK AO2 SLP122 T02000178

More Conditions Fewer Conditions

10-Day Weather Forecast

Almanac

Astronomy

Dec. 26, 2014 Rise Set
Actual Time
Civil Twilight
Nautical Twilight
Astronomical Twilight
Moon
Length of Visible Light
Length of Day
Tomorrow will be .
, % of the Moon is Illuminated

Today's Extremes

State Highs State Lows

Community

WunderPhotos

Upload Photos

1,780,800 photos uploaded!

WunderBlogs® & News

Nearby

Air Quality

  Air Quality AQ Index Pollutant
Not available.

Snow Depth

Station Depth Elevation

Earthquake Activity

City Distance Mag. Time & Date
Minimum magnitude displayed is 2.5.

Coastal Water Temperatures

Place Temperature

Nearby Weather Stations